Airfield :
LOGIN :

Register | Disclaimer

   EN    FR    IT 

 










Legend :    VFR   Marginal VFR   IFR   Intensive IFR   Very Intensive IFR
Visi :
Ceiling :
>= 8 km
>= 3000ft
5 to 8 km
1000 to 3000 ft
1500m to 5 km
500 to 1000 ft
800 to 1500m
200 to 500 ft
< 800m
< 200 ft
Symbols :   Thunderstorms  Fog  Heavy snow  Heavy precipitations  Wind > 20 kt
SIGMETs :     Misc.  Thunderstorms  Icing  Turbulence  Mountain Waves  Volcanic Ashes







- Airport Elevation : 915 ft
- IATA code : LUG


LSZA - Lugano

CURRENT METAR :
  • 272250Z AUTO 05003KT 010V160 9999 RA BKN090 //////TCU 17/16 Q1020

EXPIRED METARs :
  • 272220Z AUTO VRB03KT 6000 -RA BKN090 SCT///CB 17/16 Q1021
  • 272150Z AUTO 02004KT 360V070 2700 +RA BR BKN090 SCT///CB 19/14 Q1020
  • 272120Z AUTO 10004KT 030V150 9999 -RA SCT090 SCT110 SCT///CB 21/13 Q1020 RETSRA
  • 272050Z AUTO 12008KT 050V210 9999 -TSRA BKN///CB 21/13 Q1020
  • 272020Z AUTO 05007KT 010V100 9999 VCTS SCT050CB BKN070 BKN130 22/12 Q1019

Expired Forecast.
ATIS : +41 22 417 40 88
No reported NOTAMs for that airfield.
1 SIGMET reported for the Switzerland FIR (LSAS) :
 
Embedded thunderstorms
LSAS SIGMET 8 VALID 272210/280100 LSZH
LSAS SWITZERLAND FIR/UIR EMBD TS OBS WI N4750 E00806 - N4548 E00921 - N4529 E00751 - N4724 E00633 - N4750 E00806 TOP FL370 MOV NE WKN=



MET'MAP, your aeronautical weather chart ! - Copyright ORBIFLY December 2007 - Disclaimer

ORBIFLY MET'MAP TEAM :

Programming & Development : Alexandra Zaïnal
Concept & Development : Baudouin d'Aumeries
Co-Development & Prog : Marc-Olivier Méhu
Technical & hardware support : Manuel Goepfert

Contact : metmap@orbifly.com




SOURCES & CREDITS :

   NOAA